QLK1925 YBBN-YMHB
Flight info
| Callsign | QLK1925 |
|---|---|
| Flight time | 2h 20m |
| Altitude | 34000 |
| Route | BN H91 ADMAR Q78 OLTIN/N0443F350 H201 TESAT/N0438F340 H65 WOL H20 MOTRA/N0335F200 W407 TASUM |
| Aircraft | E190/M-SDE3GILORVW/S |
Departure
| Time | 2026-05-04 00:46 |
|---|---|
| Airport | Brisbane International Airport (YBBN) |
Arrival
| Time | 2026-05-04 03:07 |
|---|---|
| Airport | Hobart International Airport (YMHB) |
| Time | Latitude | Longitude | Altitude | Speed | Heading |
|---|---|---|---|---|---|
| 2026-05-04 00:23 | -27.38290 | 153.12281 | 20 ft | 0 kts | 259° |
| 2026-05-04 00:38 | -27.38287 | 153.12300 | 20 ft | 4 kts | 259° |
| 2026-05-04 00:38 | -27.38283 | 153.12323 | 21 ft | 4 kts | 257° |
| 2026-05-04 00:39 | -27.38276 | 153.12352 | 23 ft | 4 kts | 270° |
| 2026-05-04 00:39 | -27.38282 | 153.12377 | 22 ft | 4 kts | 301° |
| 2026-05-04 00:39 | -27.38298 | 153.12396 | 24 ft | 4 kts | 344° |
| 2026-05-04 00:39 | -27.38321 | 153.12402 | 22 ft | 3 kts | 349° |
| 2026-05-04 00:40 | -27.38325 | 153.12403 | 20 ft | 0 kts | 349° |
| 2026-05-04 00:42 | -27.38317 | 153.12402 | 21 ft | 3 kts | 355° |
| 2026-05-04 00:42 | -27.38286 | 153.12415 | 8 ft | 7 kts | 37° |
| 2026-05-04 00:43 | -27.38279 | 153.12472 | 22 ft | 9 kts | 110° |
| 2026-05-04 00:43 | -27.38311 | 153.12548 | 20 ft | 11 kts | 102° |
| 2026-05-04 00:43 | -27.38266 | 153.12609 | 20 ft | 12 kts | 28° |
| 2026-05-04 00:43 | -27.38171 | 153.12662 | 20 ft | 18 kts | 28° |
| 2026-05-04 00:44 | -27.38051 | 153.12729 | 20 ft | 20 kts | 27° |
| 2026-05-04 00:44 | -27.38002 | 153.12837 | 20 ft | 16 kts | 111° |
| 2026-05-04 00:44 | -27.38051 | 153.12950 | 20 ft | 16 kts | 117° |
| 2026-05-04 00:44 | -27.38120 | 153.13041 | 21 ft | 15 kts | 168° |
| 2026-05-04 00:45 | -27.38165 | 153.13033 | 20 ft | 0 kts | 205° |
| 2026-05-04 00:45 | -27.38167 | 153.13032 | 20 ft | 3 kts | 205° |
| 2026-05-04 00:45 | -27.38405 | 153.12898 | 22 ft | 77 kts | 207° |
| 2026-05-04 00:45 | -27.39111 | 153.12493 | 19 ft | 149 kts | 206° |
| 2026-05-04 00:46 | -27.40184 | 153.11869 | 294 ft | 191 kts | 208° |
| 2026-05-04 00:46 | -27.41382 | 153.11085 | 1166 ft | 205 kts | 211° |
| 2026-05-04 00:46 | -27.42631 | 153.10210 | 2141 ft | 218 kts | 210° |
| 2026-05-04 00:46 | -27.43956 | 153.09322 | 3172 ft | 224 kts | 207° |
| 2026-05-04 00:47 | -27.45462 | 153.08759 | 4053 ft | 238 kts | 188° |
| 2026-05-04 00:47 | -27.47147 | 153.08713 | 4784 ft | 238 kts | 174° |
| 2026-05-04 00:47 | -27.48803 | 153.08961 | 4765 ft | 243 kts | 168° |
| 2026-05-04 00:47 | -27.50550 | 153.09375 | 4730 ft | 269 kts | 164° |
| 2026-05-04 00:48 | -27.52223 | 153.10304 | 4394 ft | 270 kts | 138° |
| 2026-05-04 00:48 | -27.53604 | 153.11687 | 4394 ft | 258 kts | 146° |
| 2026-05-04 00:48 | -27.55306 | 153.12366 | 4838 ft | 266 kts | 171° |
| 2026-05-04 00:48 | -27.57195 | 153.12431 | 5301 ft | 275 kts | 181° |
| 2026-05-04 00:49 | -27.59099 | 153.12090 | 5778 ft | 281 kts | 194° |
| 2026-05-04 00:49 | -27.60937 | 153.11420 | 6267 ft | 283 kts | 197° |
| 2026-05-04 00:49 | -27.62828 | 153.10749 | 6751 ft | 285 kts | 195° |
| 2026-05-04 00:49 | -27.64734 | 153.10111 | 7219 ft | 287 kts | 196° |
| 2026-05-04 00:50 | -27.66651 | 153.09465 | 7683 ft | 288 kts | 196° |
| 2026-05-04 00:50 | -27.68579 | 153.08817 | 8169 ft | 290 kts | 196° |
| 2026-05-04 00:50 | -27.70524 | 153.08165 | 8678 ft | 292 kts | 196° |
| 2026-05-04 00:50 | -27.72472 | 153.07514 | 9209 ft | 292 kts | 197° |
| 2026-05-04 00:51 | -27.74436 | 153.06856 | 9740 ft | 295 kts | 197° |
| 2026-05-04 00:51 | -27.76414 | 153.06192 | 10264 ft | 299 kts | 197° |
| 2026-05-04 00:51 | -27.78432 | 153.05487 | 10773 ft | 307 kts | 200° |
| 2026-05-04 00:51 | -27.80489 | 153.04732 | 11318 ft | 315 kts | 198° |
| 2026-05-04 00:52 | -27.82607 | 153.04009 | 11879 ft | 321 kts | 201° |
| 2026-05-04 00:52 | -27.84719 | 153.03115 | 12450 ft | 327 kts | 202° |
| 2026-05-04 00:52 | -27.86866 | 153.02189 | 13047 ft | 333 kts | 204° |
| 2026-05-04 00:52 | -27.89046 | 153.01232 | 13664 ft | 338 kts | 204° |
| 2026-05-04 00:53 | -27.91257 | 153.00258 | 14250 ft | 344 kts | 204° |
| 2026-05-04 00:53 | -27.93489 | 152.99279 | 14810 ft | 344 kts | 204° |
| 2026-05-04 00:53 | -27.95741 | 152.98290 | 15386 ft | 349 kts | 204° |
| 2026-05-04 00:53 | -27.98018 | 152.97290 | 15974 ft | 353 kts | 205° |
| 2026-05-04 00:54 | -28.00314 | 152.96283 | 16575 ft | 355 kts | 205° |
| 2026-05-04 00:54 | -28.02590 | 152.95285 | 17180 ft | 356 kts | 205° |
| 2026-05-04 00:54 | -28.04896 | 152.94272 | 17815 ft | 356 kts | 205° |
| 2026-05-04 00:54 | -28.07210 | 152.93269 | 18421 ft | 356 kts | 206° |
| 2026-05-04 00:55 | -28.09534 | 152.92231 | 18828 ft | 361 kts | 206° |
| 2026-05-04 00:55 | -28.11885 | 152.91188 | 19246 ft | 365 kts | 206° |
| 2026-05-04 00:55 | -28.14265 | 152.90131 | 19664 ft | 369 kts | 206° |
| 2026-05-04 00:55 | -28.16665 | 152.89064 | 20095 ft | 373 kts | 206° |
| 2026-05-04 00:56 | -28.19091 | 152.87986 | 20522 ft | 376 kts | 206° |
| 2026-05-04 00:56 | -28.21551 | 152.86890 | 20846 ft | 383 kts | 206° |
| 2026-05-04 00:56 | -28.24059 | 152.85773 | 21085 ft | 391 kts | 206° |
| 2026-05-04 00:56 | -28.26625 | 152.84632 | 21329 ft | 399 kts | 206° |
| 2026-05-04 00:57 | -28.29234 | 152.83470 | 21570 ft | 406 kts | 206° |
| 2026-05-04 00:57 | -28.31877 | 152.82293 | 21951 ft | 409 kts | 206° |
| 2026-05-04 00:57 | -28.34530 | 152.81108 | 22378 ft | 411 kts | 206° |
| 2026-05-04 00:57 | -28.37190 | 152.79920 | 22776 ft | 411 kts | 206° |
| 2026-05-04 00:58 | -28.39860 | 152.78736 | 23176 ft | 412 kts | 206° |
| 2026-05-04 00:58 | -28.42539 | 152.77539 | 23607 ft | 412 kts | 207° |
| 2026-05-04 00:58 | -28.45174 | 152.76355 | 23935 ft | 414 kts | 207° |
| 2026-05-04 00:58 | -28.47860 | 152.75155 | 24222 ft | 415 kts | 207° |
| 2026-05-04 00:59 | -28.50552 | 152.73953 | 24504 ft | 416 kts | 207° |
| 2026-05-04 00:59 | -28.53255 | 152.72742 | 24779 ft | 418 kts | 207° |
| 2026-05-04 00:59 | -28.55971 | 152.71529 | 25075 ft | 418 kts | 208° |
| 2026-05-04 00:59 | -28.58679 | 152.70308 | 25379 ft | 419 kts | 207° |
| 2026-05-04 01:00 | -28.61390 | 152.69094 | 25709 ft | 419 kts | 208° |
| 2026-05-04 01:00 | -28.64105 | 152.67875 | 26023 ft | 420 kts | 208° |
| 2026-05-04 01:00 | -28.66824 | 152.66653 | 26331 ft | 420 kts | 208° |
| 2026-05-04 01:00 | -28.69545 | 152.65434 | 26656 ft | 420 kts | 208° |
| 2026-05-04 01:01 | -28.72267 | 152.64211 | 26963 ft | 421 kts | 208° |
| 2026-05-04 01:01 | -28.74995 | 152.62985 | 27276 ft | 420 kts | 209° |
| 2026-05-04 01:01 | -28.77678 | 152.61778 | 27604 ft | 420 kts | 209° |
| 2026-05-04 01:01 | -28.80433 | 152.60538 | 27938 ft | 420 kts | 209° |
| 2026-05-04 01:02 | -28.83108 | 152.59323 | 28278 ft | 419 kts | 210° |
| 2026-05-04 01:02 | -28.85753 | 152.57976 | 28607 ft | 413 kts | 215° |
| 2026-05-04 01:02 | -28.88318 | 152.56489 | 28909 ft | 414 kts | 215° |
| 2026-05-04 01:02 | -28.90872 | 152.54984 | 29192 ft | 413 kts | 216° |
| 2026-05-04 01:03 | -28.93425 | 152.53467 | 29485 ft | 414 kts | 216° |
| 2026-05-04 01:03 | -28.95975 | 152.51946 | 29783 ft | 413 kts | 217° |
| 2026-05-04 01:03 | -28.98529 | 152.50427 | 30048 ft | 414 kts | 216° |
| 2026-05-04 01:03 | -29.01075 | 152.48917 | 30292 ft | 412 kts | 217° |
| 2026-05-04 01:04 | -29.03615 | 152.47393 | 30555 ft | 412 kts | 217° |
| 2026-05-04 01:04 | -29.06158 | 152.45881 | 30812 ft | 412 kts | 217° |
| 2026-05-04 01:04 | -29.08690 | 152.44366 | 31062 ft | 410 kts | 217° |
| 2026-05-04 01:04 | -29.10364 | 152.43364 | 31236 ft | 410 kts | 217° |
| 2026-05-04 01:05 | -29.12889 | 152.41857 | 31479 ft | 409 kts | 218° |
| 2026-05-04 01:05 | -29.15405 | 152.40353 | 31731 ft | 408 kts | 218° |
| 2026-05-04 01:05 | -29.17920 | 152.38854 | 32010 ft | 406 kts | 218° |
| 2026-05-04 01:05 | -29.20419 | 152.37358 | 32295 ft | 405 kts | 218° |
| 2026-05-04 01:06 | -29.22913 | 152.35868 | 32577 ft | 403 kts | 219° |
| 2026-05-04 01:06 | -29.25397 | 152.34378 | 32838 ft | 402 kts | 219° |
| 2026-05-04 01:06 | -29.27871 | 152.32899 | 33120 ft | 400 kts | 219° |
| 2026-05-04 01:06 | -29.30327 | 152.31426 | 33421 ft | 397 kts | 219° |
| 2026-05-04 01:07 | -29.32769 | 152.29962 | 33710 ft | 395 kts | 219° |
| 2026-05-04 01:07 | -29.35200 | 152.28499 | 33931 ft | 395 kts | 219° |
| 2026-05-04 01:07 | -29.37614 | 152.27051 | 34011 ft | 399 kts | 219° |
| 2026-05-04 01:08 | -29.42587 | 152.24064 | 34038 ft | 408 kts | 219° |
| 2026-05-04 01:08 | -29.47620 | 152.21057 | 33999 ft | 405 kts | 219° |
| 2026-05-04 01:09 | -29.52621 | 152.18022 | 34042 ft | 407 kts | 219° |
| 2026-05-04 01:09 | -29.57623 | 152.15007 | 34011 ft | 406 kts | 219° |
| 2026-05-04 01:10 | -29.62626 | 152.11990 | 34034 ft | 407 kts | 219° |
| 2026-05-04 01:10 | -29.67676 | 152.09028 | 34008 ft | 413 kts | 214° |
| 2026-05-04 01:11 | -29.73144 | 152.06756 | 34025 ft | 425 kts | 206° |
| 2026-05-04 01:11 | -29.78941 | 152.05166 | 34040 ft | 429 kts | 204° |
| 2026-05-04 01:12 | -29.84774 | 152.03651 | 34007 ft | 429 kts | 205° |
| 2026-05-04 01:12 | -29.90601 | 152.02124 | 34005 ft | 429 kts | 204° |
| 2026-05-04 01:13 | -29.96426 | 152.00602 | 34008 ft | 430 kts | 205° |
| 2026-05-04 01:13 | -30.02263 | 151.99075 | 34008 ft | 430 kts | 205° |
| 2026-05-04 01:14 | -30.08089 | 151.97548 | 34003 ft | 429 kts | 205° |
| 2026-05-04 01:14 | -30.13920 | 151.96018 | 34015 ft | 430 kts | 205° |
| 2026-05-04 01:15 | -30.19746 | 151.94487 | 34005 ft | 429 kts | 205° |
| 2026-05-04 01:15 | -30.25542 | 151.92960 | 34008 ft | 431 kts | 205° |
| 2026-05-04 01:16 | -30.31388 | 151.91405 | 34002 ft | 432 kts | 204° |
| 2026-05-04 01:16 | -30.37269 | 151.89917 | 33994 ft | 432 kts | 204° |
| 2026-05-04 01:17 | -30.43137 | 151.88427 | 34011 ft | 432 kts | 204° |
| 2026-05-04 01:17 | -30.49021 | 151.86934 | 33990 ft | 432 kts | 205° |
| 2026-05-04 01:18 | -30.54888 | 151.85436 | 33999 ft | 432 kts | 204° |
| 2026-05-04 01:18 | -30.60734 | 151.83948 | 33977 ft | 432 kts | 204° |
| 2026-05-04 01:19 | -30.66610 | 151.82447 | 33985 ft | 434 kts | 204° |
| 2026-05-04 01:19 | -30.72567 | 151.80922 | 34018 ft | 443 kts | 204° |
| 2026-05-04 01:20 | -30.78632 | 151.79372 | 34103 ft | 449 kts | 204° |
| 2026-05-04 01:20 | -30.84766 | 151.77797 | 34149 ft | 455 kts | 204° |
| 2026-05-04 01:21 | -30.90979 | 151.76202 | 34142 ft | 458 kts | 204° |
| 2026-05-04 01:21 | -30.97179 | 151.74611 | 34138 ft | 456 kts | 204° |
| 2026-05-04 01:22 | -31.03377 | 151.73018 | 34153 ft | 456 kts | 205° |
| 2026-05-04 01:22 | -31.09576 | 151.71419 | 34137 ft | 456 kts | 205° |
| 2026-05-04 01:23 | -31.15782 | 151.69820 | 34168 ft | 456 kts | 205° |
| 2026-05-04 01:23 | -31.21982 | 151.68215 | 34143 ft | 456 kts | 205° |
| 2026-05-04 01:24 | -31.28178 | 151.66611 | 34133 ft | 456 kts | 205° |
| 2026-05-04 01:24 | -31.34381 | 151.65005 | 34135 ft | 456 kts | 205° |
| 2026-05-04 01:25 | -31.40582 | 151.63400 | 34143 ft | 456 kts | 205° |
| 2026-05-04 01:25 | -31.46753 | 151.61793 | 34122 ft | 458 kts | 205° |
| 2026-05-04 01:26 | -31.52965 | 151.60179 | 34123 ft | 456 kts | 205° |
| 2026-05-04 01:26 | -31.59188 | 151.58557 | 34118 ft | 457 kts | 206° |
| 2026-05-04 01:27 | -31.65395 | 151.56935 | 34154 ft | 455 kts | 205° |
| 2026-05-04 01:27 | -31.71611 | 151.55313 | 34141 ft | 458 kts | 205° |
| 2026-05-04 01:28 | -31.77837 | 151.53695 | 34102 ft | 457 kts | 205° |
| 2026-05-04 01:28 | -31.83882 | 151.51696 | 34125 ft | 450 kts | 210° |
| 2026-05-04 01:29 | -31.89905 | 151.49527 | 34097 ft | 453 kts | 210° |
| 2026-05-04 01:29 | -31.95910 | 151.47349 | 34073 ft | 451 kts | 210° |
| 2026-05-04 01:30 | -32.01924 | 151.45175 | 34106 ft | 452 kts | 210° |
| 2026-05-04 01:30 | -32.07939 | 151.42992 | 34113 ft | 455 kts | 210° |
| 2026-05-04 01:31 | -32.13965 | 151.40809 | 34124 ft | 455 kts | 210° |
| 2026-05-04 01:31 | -32.20008 | 151.38609 | 34070 ft | 454 kts | 210° |
| 2026-05-04 01:32 | -32.26053 | 151.36405 | 34095 ft | 456 kts | 209° |
| 2026-05-04 01:32 | -32.32116 | 151.34197 | 34066 ft | 457 kts | 210° |
| 2026-05-04 01:33 | -32.38197 | 151.31984 | 34032 ft | 454 kts | 210° |
| 2026-05-04 01:33 | -32.44258 | 151.29763 | 34055 ft | 459 kts | 210° |
| 2026-05-04 01:34 | -32.50378 | 151.27526 | 34075 ft | 458 kts | 210° |
| 2026-05-04 01:34 | -32.56697 | 151.25826 | 34076 ft | 475 kts | 200° |
| 2026-05-04 01:35 | -32.63401 | 151.25303 | 34078 ft | 484 kts | 195° |
| 2026-05-04 01:35 | -32.70095 | 151.24943 | 34068 ft | 485 kts | 194° |
| 2026-05-04 01:36 | -32.76841 | 151.24584 | 34079 ft | 486 kts | 194° |
| 2026-05-04 01:36 | -32.83592 | 151.24222 | 34065 ft | 485 kts | 194° |
| 2026-05-04 01:37 | -32.90344 | 151.23857 | 34078 ft | 485 kts | 194° |
| 2026-05-04 01:37 | -32.97096 | 151.23494 | 34098 ft | 485 kts | 194° |
| 2026-05-04 01:38 | -33.03849 | 151.23120 | 34063 ft | 486 kts | 194° |
| 2026-05-04 01:38 | -33.10609 | 151.22762 | 34064 ft | 486 kts | 194° |
| 2026-05-04 01:39 | -33.17309 | 151.22385 | 34039 ft | 485 kts | 194° |
| 2026-05-04 01:39 | -33.24063 | 151.22028 | 34082 ft | 485 kts | 193° |
| 2026-05-04 01:40 | -33.30801 | 151.21662 | 34046 ft | 485 kts | 193° |
| 2026-05-04 01:40 | -33.37548 | 151.21294 | 34074 ft | 485 kts | 194° |
| 2026-05-04 01:41 | -33.44283 | 151.20931 | 34068 ft | 485 kts | 193° |
| 2026-05-04 01:41 | -33.51019 | 151.20572 | 34058 ft | 484 kts | 193° |
| 2026-05-04 01:42 | -33.57747 | 151.20213 | 34051 ft | 484 kts | 193° |
| 2026-05-04 01:42 | -33.64489 | 151.19857 | 34053 ft | 484 kts | 193° |
| 2026-05-04 01:43 | -33.71218 | 151.19496 | 34063 ft | 484 kts | 192° |
| 2026-05-04 01:43 | -33.77958 | 151.19139 | 34082 ft | 484 kts | 192° |
| 2026-05-04 01:44 | -33.84647 | 151.18779 | 34104 ft | 484 kts | 192° |
| 2026-05-04 01:44 | -33.91372 | 151.18377 | 34106 ft | 480 kts | 195° |
| 2026-05-04 01:44 | -33.94610 | 151.17679 | 34097 ft | 467 kts | 205° |
| 2026-05-04 01:45 | -33.97628 | 151.16404 | 34106 ft | 453 kts | 215° |
| 2026-05-04 01:45 | -34.05814 | 151.11021 | 34102 ft | 448 kts | 218° |
| 2026-05-04 01:46 | -34.11295 | 151.07525 | 34102 ft | 449 kts | 217° |
| 2026-05-04 01:46 | -34.16841 | 151.04011 | 34076 ft | 450 kts | 217° |
| 2026-05-04 01:47 | -34.22383 | 151.00483 | 34027 ft | 449 kts | 217° |
| 2026-05-04 01:47 | -34.27938 | 150.96943 | 34050 ft | 451 kts | 217° |
| 2026-05-04 01:48 | -34.33509 | 150.93385 | 34035 ft | 455 kts | 215° |
| 2026-05-04 01:48 | -34.39094 | 150.89816 | 34044 ft | 454 kts | 216° |
| 2026-05-04 01:49 | -34.44678 | 150.86238 | 34036 ft | 454 kts | 216° |
| 2026-05-04 01:49 | -34.50221 | 150.82678 | 34052 ft | 455 kts | 215° |
| 2026-05-04 01:50 | -34.55849 | 150.79058 | 34031 ft | 459 kts | 216° |
| 2026-05-04 01:50 | -34.61446 | 150.75364 | 34037 ft | 457 kts | 215° |
| 2026-05-04 01:51 | -34.67014 | 150.71676 | 34035 ft | 456 kts | 215° |
| 2026-05-04 01:51 | -34.72594 | 150.67978 | 34031 ft | 456 kts | 215° |
| 2026-05-04 01:52 | -34.78166 | 150.64278 | 34027 ft | 456 kts | 215° |
| 2026-05-04 01:52 | -34.82791 | 150.61200 | 34035 ft | 456 kts | 215° |
| 2026-05-04 01:53 | -34.88363 | 150.57481 | 34072 ft | 457 kts | 214° |
| 2026-05-04 01:53 | -34.94057 | 150.53950 | 34033 ft | 463 kts | 207° |
| 2026-05-04 01:54 | -35.00214 | 150.51509 | 34021 ft | 469 kts | 199° |
| 2026-05-04 01:54 | -35.06553 | 150.49581 | 34021 ft | 469 kts | 199° |
| 2026-05-04 01:55 | -35.12880 | 150.47699 | 34022 ft | 473 kts | 199° |
| 2026-05-04 01:55 | -35.19220 | 150.45815 | 34024 ft | 471 kts | 198° |
| 2026-05-04 01:56 | -35.25628 | 150.43900 | 34016 ft | 476 kts | 198° |
| 2026-05-04 01:56 | -35.32097 | 150.41966 | 34017 ft | 481 kts | 198° |
| 2026-05-04 01:57 | -35.38615 | 150.40016 | 34007 ft | 481 kts | 198° |
| 2026-05-04 01:57 | -35.45105 | 150.38070 | 34014 ft | 480 kts | 198° |
| 2026-05-04 01:58 | -35.51605 | 150.36118 | 34005 ft | 481 kts | 198° |
| 2026-05-04 01:58 | -35.58105 | 150.34161 | 34002 ft | 480 kts | 198° |
| 2026-05-04 01:59 | -35.64597 | 150.32206 | 34000 ft | 481 kts | 198° |
| 2026-05-04 01:59 | -35.71097 | 150.30242 | 33997 ft | 482 kts | 198° |
| 2026-05-04 02:00 | -35.77574 | 150.28283 | 34021 ft | 482 kts | 198° |
| 2026-05-04 02:00 | -35.84126 | 150.26302 | 33983 ft | 482 kts | 198° |
| 2026-05-04 02:01 | -35.90605 | 150.24335 | 34081 ft | 484 kts | 198° |
| 2026-05-04 02:01 | -35.97150 | 150.22344 | 34028 ft | 484 kts | 198° |
| 2026-05-04 02:02 | -36.03686 | 150.20354 | 33974 ft | 484 kts | 198° |
| 2026-05-04 02:02 | -36.10226 | 150.18359 | 33991 ft | 485 kts | 199° |
| 2026-05-04 02:03 | -36.16774 | 150.16356 | 33958 ft | 485 kts | 199° |
| 2026-05-04 02:03 | -36.23328 | 150.14353 | 33970 ft | 485 kts | 199° |
| 2026-05-04 02:04 | -36.29885 | 150.12343 | 33976 ft | 486 kts | 199° |
| 2026-05-04 02:04 | -36.36489 | 150.10313 | 33958 ft | 491 kts | 199° |
| 2026-05-04 02:05 | -36.43101 | 150.08279 | 33963 ft | 489 kts | 199° |
| 2026-05-04 02:05 | -36.49706 | 150.06245 | 33965 ft | 490 kts | 199° |
| 2026-05-04 02:06 | -36.56304 | 150.04207 | 33947 ft | 490 kts | 199° |
| 2026-05-04 02:06 | -36.62922 | 150.02159 | 33956 ft | 490 kts | 199° |
| 2026-05-04 02:07 | -36.69496 | 150.00122 | 33946 ft | 490 kts | 199° |
| 2026-05-04 02:07 | -36.76110 | 149.98070 | 33945 ft | 490 kts | 199° |
| 2026-05-04 02:08 | -36.82727 | 149.96013 | 33950 ft | 490 kts | 199° |
| 2026-05-04 02:08 | -36.89354 | 149.93948 | 33955 ft | 491 kts | 199° |
| 2026-05-04 02:09 | -36.95983 | 149.91879 | 33943 ft | 491 kts | 199° |
| 2026-05-04 02:09 | -37.02606 | 149.89811 | 33942 ft | 491 kts | 199° |
| 2026-05-04 02:10 | -37.09236 | 149.87732 | 33964 ft | 493 kts | 199° |
| 2026-05-04 02:10 | -37.15907 | 149.85641 | 33929 ft | 493 kts | 199° |
| 2026-05-04 02:11 | -37.22574 | 149.83544 | 33938 ft | 493 kts | 199° |
| 2026-05-04 02:11 | -37.29197 | 149.81458 | 33947 ft | 496 kts | 199° |
| 2026-05-04 02:12 | -37.35898 | 149.79346 | 33932 ft | 495 kts | 199° |
| 2026-05-04 02:12 | -37.42585 | 149.77233 | 33943 ft | 496 kts | 199° |
| 2026-05-04 02:13 | -37.49285 | 149.75110 | 33955 ft | 499 kts | 199° |
| 2026-05-04 02:13 | -37.56019 | 149.72980 | 33929 ft | 499 kts | 199° |
| 2026-05-04 02:14 | -37.62709 | 149.70708 | 33943 ft | 497 kts | 201° |
| 2026-05-04 02:14 | -37.69367 | 149.68290 | 33938 ft | 498 kts | 201° |
| 2026-05-04 02:15 | -37.76028 | 149.65856 | 33942 ft | 498 kts | 201° |
| 2026-05-04 02:15 | -37.82684 | 149.63421 | 33942 ft | 498 kts | 201° |
| 2026-05-04 02:16 | -37.89367 | 149.60975 | 33940 ft | 500 kts | 201° |
| 2026-05-04 02:16 | -37.96057 | 149.58519 | 33947 ft | 501 kts | 201° |
| 2026-05-04 02:17 | -38.02753 | 149.56059 | 33961 ft | 502 kts | 201° |
| 2026-05-04 02:17 | -38.09481 | 149.53582 | 33938 ft | 504 kts | 201° |
| 2026-05-04 02:18 | -38.16206 | 149.51099 | 33949 ft | 504 kts | 201° |
| 2026-05-04 02:18 | -38.22944 | 149.48607 | 33951 ft | 506 kts | 201° |
| 2026-05-04 02:19 | -38.29703 | 149.46106 | 33946 ft | 505 kts | 201° |
| 2026-05-04 02:19 | -38.36408 | 149.43618 | 33949 ft | 505 kts | 201° |
| 2026-05-04 02:20 | -38.43183 | 149.41098 | 33936 ft | 509 kts | 201° |
| 2026-05-04 02:20 | -38.49965 | 149.38572 | 33948 ft | 508 kts | 201° |
| 2026-05-04 02:21 | -38.56748 | 149.36039 | 33948 ft | 508 kts | 201° |
| 2026-05-04 02:21 | -38.63530 | 149.33502 | 33952 ft | 508 kts | 201° |
| 2026-05-04 02:22 | -38.70314 | 149.30961 | 33938 ft | 508 kts | 201° |
| 2026-05-04 02:22 | -38.77100 | 149.28411 | 33950 ft | 509 kts | 201° |
| 2026-05-04 02:23 | -38.83908 | 149.25851 | 33942 ft | 509 kts | 201° |
| 2026-05-04 02:23 | -38.90706 | 149.23289 | 33947 ft | 509 kts | 201° |
| 2026-05-04 02:24 | -38.97516 | 149.20715 | 33946 ft | 510 kts | 201° |
| 2026-05-04 02:24 | -39.04280 | 149.18156 | 33950 ft | 510 kts | 201° |
| 2026-05-04 02:25 | -39.11088 | 149.15572 | 33951 ft | 510 kts | 201° |
| 2026-05-04 02:25 | -39.17896 | 149.12985 | 33946 ft | 510 kts | 201° |
| 2026-05-04 02:26 | -39.24717 | 149.10389 | 33949 ft | 510 kts | 201° |
| 2026-05-04 02:26 | -39.31507 | 149.07800 | 33931 ft | 498 kts | 201° |
| 2026-05-04 02:27 | -39.34775 | 149.06551 | 33918 ft | 482 kts | 201° |
| 2026-05-04 02:27 | -39.37991 | 149.05317 | 33923 ft | 484 kts | 201° |
| 2026-05-04 02:27 | -39.44463 | 149.02841 | 33962 ft | 489 kts | 202° |
| 2026-05-04 02:28 | -39.50982 | 149.00338 | 33944 ft | 489 kts | 202° |
| 2026-05-04 02:28 | -39.57500 | 148.97830 | 33949 ft | 489 kts | 202° |
| 2026-05-04 02:29 | -39.64026 | 148.95315 | 33959 ft | 489 kts | 201° |
| 2026-05-04 02:29 | -39.70560 | 148.92793 | 33936 ft | 490 kts | 201° |
| 2026-05-04 02:30 | -39.77093 | 148.90265 | 33940 ft | 490 kts | 201° |
| 2026-05-04 02:30 | -39.83636 | 148.87728 | 33950 ft | 492 kts | 201° |
| 2026-05-04 02:31 | -39.90192 | 148.85185 | 33935 ft | 491 kts | 201° |
| 2026-05-04 02:31 | -39.96739 | 148.82636 | 33940 ft | 491 kts | 201° |
| 2026-05-04 02:32 | -40.03301 | 148.80078 | 33935 ft | 493 kts | 201° |
| 2026-05-04 02:32 | -40.09873 | 148.77508 | 33479 ft | 493 kts | 201° |
| 2026-05-04 02:33 | -40.13157 | 148.76223 | 33075 ft | 492 kts | 201° |
| 2026-05-04 02:33 | -40.16432 | 148.74937 | 32722 ft | 492 kts | 201° |
| 2026-05-04 02:33 | -40.19721 | 148.73649 | 32340 ft | 493 kts | 201° |
| 2026-05-04 02:33 | -40.23009 | 148.72356 | 31963 ft | 494 kts | 201° |
| 2026-05-04 02:34 | -40.26301 | 148.71063 | 31598 ft | 494 kts | 201° |
| 2026-05-04 02:34 | -40.29603 | 148.69764 | 31228 ft | 495 kts | 201° |
| 2026-05-04 02:34 | -40.32860 | 148.68480 | 30873 ft | 496 kts | 201° |
| 2026-05-04 02:34 | -40.36176 | 148.67174 | 30495 ft | 496 kts | 201° |
| 2026-05-04 02:35 | -40.39483 | 148.65867 | 30123 ft | 497 kts | 201° |
| 2026-05-04 02:35 | -40.42796 | 148.64558 | 29701 ft | 497 kts | 201° |
| 2026-05-04 02:35 | -40.46106 | 148.63251 | 29265 ft | 495 kts | 201° |
| 2026-05-04 02:35 | -40.49389 | 148.61949 | 28841 ft | 491 kts | 201° |
| 2026-05-04 02:36 | -40.52651 | 148.60657 | 28409 ft | 487 kts | 201° |
| 2026-05-04 02:36 | -40.55883 | 148.59375 | 27974 ft | 484 kts | 201° |
| 2026-05-04 02:36 | -40.59093 | 148.58101 | 27545 ft | 481 kts | 201° |
| 2026-05-04 02:36 | -40.62286 | 148.56829 | 27140 ft | 477 kts | 201° |
| 2026-05-04 02:37 | -40.65452 | 148.55571 | 26729 ft | 474 kts | 201° |
| 2026-05-04 02:37 | -40.68592 | 148.54318 | 26356 ft | 470 kts | 201° |
| 2026-05-04 02:37 | -40.71714 | 148.53075 | 25922 ft | 467 kts | 202° |
| 2026-05-04 02:37 | -40.74823 | 148.51833 | 25531 ft | 465 kts | 202° |
| 2026-05-04 02:38 | -40.77911 | 148.50601 | 25149 ft | 462 kts | 202° |
| 2026-05-04 02:38 | -40.80975 | 148.49374 | 24770 ft | 459 kts | 202° |
| 2026-05-04 02:38 | -40.84022 | 148.48156 | 24409 ft | 455 kts | 202° |
| 2026-05-04 02:38 | -40.87040 | 148.46947 | 24035 ft | 451 kts | 202° |
| 2026-05-04 02:39 | -40.89990 | 148.45762 | 23678 ft | 448 kts | 202° |
| 2026-05-04 02:39 | -40.92964 | 148.44570 | 23274 ft | 445 kts | 202° |
| 2026-05-04 02:39 | -40.95915 | 148.43382 | 22844 ft | 442 kts | 202° |
| 2026-05-04 02:39 | -40.98848 | 148.42205 | 22407 ft | 439 kts | 202° |
| 2026-05-04 02:40 | -41.01758 | 148.41031 | 22000 ft | 435 kts | 202° |
| 2026-05-04 02:40 | -41.03710 | 148.40246 | 21715 ft | 432 kts | 202° |
| 2026-05-04 02:40 | -41.07502 | 148.38716 | 21166 ft | 428 kts | 202° |
| 2026-05-04 02:40 | -41.09387 | 148.37957 | 20895 ft | 427 kts | 202° |
| 2026-05-04 02:41 | -41.12213 | 148.36814 | 20486 ft | 424 kts | 202° |
| 2026-05-04 02:41 | -41.15034 | 148.35676 | 20089 ft | 421 kts | 202° |
| 2026-05-04 02:41 | -41.17825 | 148.34545 | 19711 ft | 418 kts | 202° |
| 2026-05-04 02:41 | -41.20598 | 148.33426 | 19310 ft | 415 kts | 202° |
| 2026-05-04 02:42 | -41.23352 | 148.32305 | 18927 ft | 413 kts | 202° |
| 2026-05-04 02:42 | -41.26089 | 148.31197 | 18548 ft | 410 kts | 202° |
| 2026-05-04 02:42 | -41.28810 | 148.30087 | 18179 ft | 408 kts | 202° |
| 2026-05-04 02:42 | -41.31526 | 148.29023 | 17756 ft | 405 kts | 201° |
| 2026-05-04 02:43 | -41.34174 | 148.27838 | 17330 ft | 398 kts | 205° |
| 2026-05-04 02:43 | -41.36765 | 148.26597 | 16956 ft | 393 kts | 205° |
| 2026-05-04 02:43 | -41.39323 | 148.25358 | 16597 ft | 389 kts | 205° |
| 2026-05-04 02:43 | -41.41854 | 148.24125 | 16264 ft | 386 kts | 205° |
| 2026-05-04 02:44 | -41.44373 | 148.22885 | 16038 ft | 385 kts | 205° |
| 2026-05-04 02:44 | -41.46885 | 148.21656 | 15799 ft | 384 kts | 205° |
| 2026-05-04 02:44 | -41.49388 | 148.20429 | 15559 ft | 382 kts | 205° |
| 2026-05-04 02:44 | -41.51872 | 148.19216 | 15323 ft | 379 kts | 204° |
| 2026-05-04 02:45 | -41.54335 | 148.18002 | 15083 ft | 375 kts | 204° |
| 2026-05-04 02:45 | -41.56778 | 148.16802 | 14834 ft | 374 kts | 204° |
| 2026-05-04 02:45 | -41.59183 | 148.15632 | 14591 ft | 372 kts | 204° |
| 2026-05-04 02:45 | -41.61607 | 148.14439 | 14355 ft | 371 kts | 204° |
| 2026-05-04 02:46 | -41.64022 | 148.13250 | 14121 ft | 369 kts | 204° |
| 2026-05-04 02:46 | -41.66424 | 148.12064 | 13872 ft | 367 kts | 204° |
| 2026-05-04 02:46 | -41.68819 | 148.10888 | 13636 ft | 365 kts | 204° |
| 2026-05-04 02:46 | -41.71189 | 148.09716 | 13391 ft | 363 kts | 204° |
| 2026-05-04 02:47 | -41.73553 | 148.08549 | 13113 ft | 361 kts | 204° |
| 2026-05-04 02:47 | -41.75910 | 148.07389 | 12849 ft | 359 kts | 204° |
| 2026-05-04 02:47 | -41.78247 | 148.06237 | 12605 ft | 357 kts | 204° |
| 2026-05-04 02:47 | -41.80571 | 148.05088 | 12346 ft | 355 kts | 203° |
| 2026-05-04 02:48 | -41.82882 | 148.03944 | 12090 ft | 353 kts | 204° |
| 2026-05-04 02:48 | -41.85185 | 148.02800 | 11849 ft | 351 kts | 204° |
| 2026-05-04 02:48 | -41.87435 | 148.01682 | 11603 ft | 349 kts | 203° |
| 2026-05-04 02:48 | -41.89733 | 148.00548 | 11346 ft | 343 kts | 203° |
| 2026-05-04 02:49 | -41.91894 | 147.99478 | 11197 ft | 328 kts | 203° |
| 2026-05-04 02:49 | -41.93993 | 147.98435 | 11075 ft | 317 kts | 204° |
| 2026-05-04 02:49 | -41.96030 | 147.97423 | 10961 ft | 308 kts | 204° |
| 2026-05-04 02:49 | -41.98030 | 147.96423 | 10848 ft | 307 kts | 204° |
| 2026-05-04 02:50 | -42.00039 | 147.95420 | 10742 ft | 309 kts | 203° |
| 2026-05-04 02:50 | -42.02055 | 147.94419 | 10641 ft | 308 kts | 203° |
| 2026-05-04 02:50 | -42.04062 | 147.93419 | 10540 ft | 307 kts | 204° |
| 2026-05-04 02:50 | -42.06058 | 147.92432 | 10422 ft | 305 kts | 203° |
| 2026-05-04 02:51 | -42.08057 | 147.91423 | 10313 ft | 306 kts | 204° |
| 2026-05-04 02:51 | -42.10052 | 147.90425 | 10222 ft | 305 kts | 203° |
| 2026-05-04 02:51 | -42.12043 | 147.89433 | 10125 ft | 307 kts | 203° |
| 2026-05-04 02:51 | -42.14036 | 147.88439 | 10046 ft | 304 kts | 203° |
| 2026-05-04 02:52 | -42.16018 | 147.87446 | 9963 ft | 304 kts | 203° |
| 2026-05-04 02:52 | -42.17998 | 147.86455 | 9873 ft | 303 kts | 203° |
| 2026-05-04 02:52 | -42.19980 | 147.85463 | 9746 ft | 304 kts | 203° |
| 2026-05-04 02:52 | -42.21952 | 147.84465 | 9531 ft | 300 kts | 203° |
| 2026-05-04 02:53 | -42.23899 | 147.83495 | 9318 ft | 297 kts | 202° |
| 2026-05-04 02:53 | -42.25833 | 147.82530 | 9112 ft | 297 kts | 202° |
| 2026-05-04 02:53 | -42.27748 | 147.81568 | 8898 ft | 297 kts | 202° |
| 2026-05-04 02:53 | -42.29680 | 147.80593 | 8704 ft | 296 kts | 203° |
| 2026-05-04 02:54 | -42.31609 | 147.79646 | 8492 ft | 294 kts | 200° |
| 2026-05-04 02:54 | -42.33583 | 147.78907 | 8288 ft | 295 kts | 196° |
| 2026-05-04 02:54 | -42.35586 | 147.78296 | 8079 ft | 295 kts | 194° |
| 2026-05-04 02:54 | -42.37597 | 147.77746 | 7869 ft | 294 kts | 191° |
| 2026-05-04 02:55 | -42.41671 | 147.77120 | 7458 ft | 298 kts | 187° |
| 2026-05-04 02:55 | -42.43725 | 147.76849 | 7272 ft | 295 kts | 187° |
| 2026-05-04 02:55 | -42.45756 | 147.76589 | 7079 ft | 295 kts | 187° |
| 2026-05-04 02:56 | -42.47791 | 147.76323 | 6898 ft | 292 kts | 187° |
| 2026-05-04 02:56 | -42.49820 | 147.76063 | 6697 ft | 294 kts | 188° |
| 2026-05-04 02:56 | -42.51852 | 147.75791 | 6508 ft | 291 kts | 187° |
| 2026-05-04 02:56 | -42.53867 | 147.75537 | 6309 ft | 292 kts | 187° |
| 2026-05-04 02:57 | -42.55869 | 147.75275 | 6091 ft | 286 kts | 187° |
| 2026-05-04 02:57 | -42.57823 | 147.75023 | 5873 ft | 279 kts | 187° |
| 2026-05-04 02:57 | -42.59746 | 147.74771 | 5667 ft | 274 kts | 187° |
| 2026-05-04 02:57 | -42.61636 | 147.74523 | 5443 ft | 272 kts | 188° |
| 2026-05-04 02:58 | -42.63497 | 147.74281 | 5322 ft | 266 kts | 187° |
| 2026-05-04 02:58 | -42.65315 | 147.74046 | 5201 ft | 260 kts | 188° |
| 2026-05-04 02:58 | -42.67109 | 147.73802 | 5058 ft | 259 kts | 188° |
| 2026-05-04 02:58 | -42.68908 | 147.73565 | 4999 ft | 261 kts | 187° |
| 2026-05-04 02:59 | -42.70703 | 147.73335 | 4979 ft | 261 kts | 187° |
| 2026-05-04 02:59 | -42.72522 | 147.73252 | 4990 ft | 262 kts | 181° |
| 2026-05-04 02:59 | -42.74350 | 147.73260 | 4919 ft | 263 kts | 182° |
| 2026-05-04 02:59 | -42.76178 | 147.73212 | 4857 ft | 261 kts | 183° |
| 2026-05-04 03:00 | -42.77990 | 147.73104 | 4788 ft | 261 kts | 186° |
| 2026-05-04 03:00 | -42.79799 | 147.72905 | 4736 ft | 259 kts | 186° |
| 2026-05-04 03:00 | -42.81598 | 147.72783 | 4660 ft | 259 kts | 182° |
| 2026-05-04 03:00 | -42.83400 | 147.72742 | 4586 ft | 258 kts | 182° |
| 2026-05-04 03:01 | -42.85161 | 147.72707 | 4522 ft | 245 kts | 182° |
| 2026-05-04 03:01 | -42.86808 | 147.72676 | 4441 ft | 228 kts | 182° |
| 2026-05-04 03:01 | -42.88354 | 147.72648 | 4284 ft | 216 kts | 181° |
| 2026-05-04 03:01 | -42.89830 | 147.72622 | 4122 ft | 208 kts | 182° |
| 2026-05-04 03:02 | -42.91243 | 147.72599 | 3969 ft | 198 kts | 185° |
| 2026-05-04 03:02 | -42.92443 | 147.71978 | 3807 ft | 179 kts | 227° |
| 2026-05-04 03:02 | -42.92939 | 147.70540 | 3535 ft | 165 kts | 273° |
| 2026-05-04 03:02 | -42.92892 | 147.68996 | 3235 ft | 162 kts | 279° |
| 2026-05-04 03:03 | -42.92816 | 147.67482 | 2921 ft | 162 kts | 276° |
| 2026-05-04 03:03 | -42.92805 | 147.65946 | 2590 ft | 162 kts | 274° |
| 2026-05-04 03:03 | -42.92738 | 147.64421 | 2317 ft | 157 kts | 293° |
| 2026-05-04 03:03 | -42.92218 | 147.63154 | 2164 ft | 156 kts | 306° |
| 2026-05-04 03:04 | -42.91654 | 147.61883 | 1903 ft | 153 kts | 304° |
| 2026-05-04 03:04 | -42.91018 | 147.60748 | 1857 ft | 150 kts | 321° |
| 2026-05-04 03:04 | -42.90175 | 147.59858 | 1639 ft | 155 kts | 323° |
| 2026-05-04 03:04 | -42.89341 | 147.58920 | 1300 ft | 153 kts | 319° |
| 2026-05-04 03:05 | -42.88574 | 147.57895 | 1107 ft | 154 kts | 316° |
| 2026-05-04 03:05 | -42.87830 | 147.56871 | 921 ft | 149 kts | 316° |
| 2026-05-04 03:05 | -42.87115 | 147.55888 | 732 ft | 143 kts | 316° |
| 2026-05-04 03:05 | -42.86414 | 147.54953 | 510 ft | 140 kts | 318° |
| 2026-05-04 03:06 | -42.85757 | 147.54069 | 426 ft | 124 kts | 316° |
| 2026-05-04 03:06 | -42.85173 | 147.53269 | 239 ft | 112 kts | 317° |
| 2026-05-04 03:06 | -42.84634 | 147.52551 | 51 ft | 106 kts | 317° |
| 2026-05-04 03:06 | -42.84146 | 147.51893 | 18 ft | 83 kts | 314° |
| 2026-05-04 03:07 | -42.83862 | 147.51513 | 15 ft | 36 kts | 314° |
| 2026-05-04 03:07 | -42.83771 | 147.51332 | 18 ft | 17 kts | 255° |
| 2026-05-04 03:07 | -42.83845 | 147.51216 | 20 ft | 16 kts | 229° |
| 2026-05-04 03:07 | -42.83834 | 147.51105 | 22 ft | 11 kts | 314° |
| 2026-05-04 03:08 | -42.83771 | 147.51018 | 22 ft | 14 kts | 315° |
| 2026-05-04 03:08 | -42.83700 | 147.50923 | 24 ft | 15 kts | 315° |
| 2026-05-04 03:08 | -42.83617 | 147.50812 | 22 ft | 18 kts | 316° |
| 2026-05-04 03:08 | -42.83575 | 147.50696 | 19 ft | 12 kts | 245° |
| 2026-05-04 03:09 | -42.83619 | 147.50630 | 20 ft | 4 kts | 225° |
| 2026-05-04 03:09 | -42.83640 | 147.50600 | 18 ft | 3 kts | 228° |
| 2026-05-04 03:09 | -42.83650 | 147.50586 | 20 ft | 2 kts | 221° |
| 2026-05-04 03:09 | -42.83659 | 147.50578 | 18 ft | 1 kts | 214° |
| 2026-05-04 03:10 | -42.83659 | 147.50577 | 18 ft | 0 kts | 214° |